sensor_id;sensor_type;location;lat;lon;timestamp;P1;durP1;ratioP1;P2;durP2;ratioP2
46561;SDS011;32289;42.688;23.330;2022-11-15T00:00:47;91.15;;;36.92;;
46561;SDS011;32289;42.688;23.330;2022-11-15T00:04:28;63.78;;;32.33;;
46561;SDS011;32289;42.688;23.330;2022-11-15T00:08:09;79.60;;;33.85;;
46561;SDS011;32289;42.688;23.330;2022-11-15T00:11:51;71.35;;;31.52;;
46561;SDS011;32289;42.688;23.330;2022-11-15T00:15:33;64.50;;;30.05;;
46561;SDS011;32289;42.688;23.330;2022-11-15T00:19:18;57.33;;;29.05;;
46561;SDS011;32289;42.688;23.330;2022-11-15T00:22:59;80.97;;;33.33;;
46561;SDS011;32289;42.688;23.330;2022-11-15T00:26:40;68.07;;;31.17;;
46561;SDS011;32289;42.688;23.330;2022-11-15T00:30:20;71.10;;;30.92;;
46561;SDS011;32289;42.688;23.330;2022-11-15T00:34:01;57.50;;;27.05;;
46561;SDS011;32289;42.688;23.330;2022-11-15T00:37:41;58.75;;;29.42;;
46561;SDS011;32289;42.688;23.330;2022-11-15T00:41:22;69.18;;;30.50;;
46561;SDS011;32289;42.688;23.330;2022-11-15T00:45:03;67.05;;;30.50;;
46561;SDS011;32289;42.688;23.330;2022-11-15T00:48:44;67.55;;;30.63;;
46561;SDS011;32289;42.688;23.330;2022-11-15T00:52:24;71.97;;;30.02;;
46561;SDS011;32289;42.688;23.330;2022-11-15T00:56:05;72.82;;;32.17;;
46561;SDS011;32289;42.688;23.330;2022-11-15T00:59:46;77.93;;;34.22;;
46561;SDS011;32289;42.688;23.330;2022-11-15T01:03:26;71.03;;;30.50;;
46561;SDS011;32289;42.688;23.330;2022-11-15T01:07:07;66.70;;;29.50;;
46561;SDS011;32289;42.688;23.330;2022-11-15T01:10:48;74.05;;;28.60;;
46561;SDS011;32289;42.688;23.330;2022-11-15T01:14:28;69.53;;;28.92;;
46561;SDS011;32289;42.688;23.330;2022-11-15T01:18:09;61.53;;;26.90;;
46561;SDS011;32289;42.688;23.330;2022-11-15T01:21:50;58.15;;;27.73;;
46561;SDS011;32289;42.688;23.330;2022-11-15T01:25:31;54.15;;;25.80;;
46561;SDS011;32289;42.688;23.330;2022-11-15T01:29:12;56.65;;;26.17;;
46561;SDS011;32289;42.688;23.330;2022-11-15T01:32:52;59.03;;;27.33;;
46561;SDS011;32289;42.688;23.330;2022-11-15T01:36:33;66.18;;;28.08;;
46561;SDS011;32289;42.688;23.330;2022-11-15T01:40:14;65.28;;;25.77;;
46561;SDS011;32289;42.688;23.330;2022-11-15T01:43:56;59.95;;;26.27;;
46561;SDS011;32289;42.688;23.330;2022-11-15T01:47:57;57.10;;;24.50;;
46561;SDS011;32289;42.688;23.330;2022-11-15T01:51:37;65.15;;;25.23;;
46561;SDS011;32289;42.688;23.330;2022-11-15T01:55:20;53.33;;;24.90;;
46561;SDS011;32289;42.688;23.330;2022-11-15T01:59:05;53.78;;;24.33;;
46561;SDS011;32289;42.688;23.330;2022-11-15T02:02:48;56.60;;;25.30;;
46561;SDS011;32289;42.688;23.330;2022-11-15T02:06:28;51.55;;;23.45;;
46561;SDS011;32289;42.688;23.330;2022-11-15T02:10:11;54.55;;;22.35;;
46561;SDS011;32289;42.688;23.330;2022-11-15T02:13:59;52.88;;;22.45;;
46561;SDS011;32289;42.688;23.330;2022-11-15T02:22:12;50.28;;;24.08;;
46561;SDS011;32289;42.688;23.330;2022-11-15T02:34:25;44.30;;;21.08;;
46561;SDS011;32289;42.688;23.330;2022-11-15T02:46:55;46.33;;;20.63;;
46561;SDS011;32289;42.688;23.330;2022-11-15T02:50:54;38.00;;;18.75;;
46561;SDS011;32289;42.688;23.330;2022-11-15T02:54:35;61.33;;;22.70;;
46561;SDS011;32289;42.688;23.330;2022-11-15T03:02:21;49.22;;;20.60;;
46561;SDS011;32289;42.688;23.330;2022-11-15T03:22:14;55.67;;;20.92;;
46561;SDS011;32289;42.688;23.330;2022-11-15T03:25:59;50.10;;;22.25;;
46561;SDS011;32289;42.688;23.330;2022-11-15T03:29:42;45.92;;;21.80;;
46561;SDS011;32289;42.688;23.330;2022-11-15T03:33:26;54.15;;;22.05;;
46561;SDS011;32289;42.688;23.330;2022-11-15T03:37:08;49.25;;;21.15;;
46561;SDS011;32289;42.688;23.330;2022-11-15T03:44:39;52.15;;;21.02;;
46561;SDS011;32289;42.688;23.330;2022-11-15T03:48:41;56.10;;;21.10;;
46561;SDS011;32289;42.688;23.330;2022-11-15T03:52:30;59.72;;;20.52;;
46561;SDS011;32289;42.688;23.330;2022-11-15T03:56:13;52.17;;;21.85;;
46561;SDS011;32289;42.688;23.330;2022-11-15T03:59:54;55.15;;;20.45;;
46561;SDS011;32289;42.688;23.330;2022-11-15T04:03:34;50.58;;;19.42;;
46561;SDS011;32289;42.688;23.330;2022-11-15T04:07:15;64.32;;;20.55;;
46561;SDS011;32289;42.688;23.330;2022-11-15T04:10:55;61.35;;;19.73;;
46561;SDS011;32289;42.688;23.330;2022-11-15T04:14:36;48.83;;;19.83;;
46561;SDS011;32289;42.688;23.330;2022-11-15T04:18:17;52.03;;;17.45;;
46561;SDS011;32289;42.688;23.330;2022-11-15T04:21:57;43.47;;;18.52;;
46561;SDS011;32289;42.688;23.330;2022-11-15T04:25:58;48.97;;;19.13;;
46561;SDS011;32289;42.688;23.330;2022-11-15T04:29:41;54.55;;;19.60;;
46561;SDS011;32289;42.688;23.330;2022-11-15T04:33:22;66.28;;;20.88;;
46561;SDS011;32289;42.688;23.330;2022-11-15T04:37:03;52.88;;;20.02;;
46561;SDS011;32289;42.688;23.330;2022-11-15T04:40:52;64.13;;;22.98;;
46561;SDS011;32289;42.688;23.330;2022-11-15T04:44:33;57.08;;;19.83;;
46561;SDS011;32289;42.688;23.330;2022-11-15T04:48:14;54.92;;;22.88;;
46561;SDS011;32289;42.688;23.330;2022-11-15T04:51:54;66.80;;;21.27;;
46561;SDS011;32289;42.688;23.330;2022-11-15T04:55:35;51.30;;;21.38;;
46561;SDS011;32289;42.688;23.330;2022-11-15T04:59:16;63.60;;;23.83;;
46561;SDS011;32289;42.688;23.330;2022-11-15T05:02:56;55.92;;;23.48;;
46561;SDS011;32289;42.688;23.330;2022-11-15T05:06:55;60.28;;;24.23;;
46561;SDS011;32289;42.688;23.330;2022-11-15T05:10:36;52.13;;;23.63;;
46561;SDS011;32289;42.688;23.330;2022-11-15T05:14:17;59.13;;;21.63;;
46561;SDS011;32289;42.688;23.330;2022-11-15T05:17:58;61.35;;;22.83;;
46561;SDS011;32289;42.688;23.330;2022-11-15T05:21:40;57.05;;;24.17;;
46561;SDS011;32289;42.688;23.330;2022-11-15T05:25:21;57.67;;;22.90;;
46561;SDS011;32289;42.688;23.330;2022-11-15T05:29:02;50.08;;;21.45;;
46561;SDS011;32289;42.688;23.330;2022-11-15T05:32:43;46.80;;;24.83;;
46561;SDS011;32289;42.688;23.330;2022-11-15T05:36:35;45.40;;;21.83;;
46561;SDS011;32289;42.688;23.330;2022-11-15T05:40:16;55.10;;;21.88;;
46561;SDS011;32289;42.688;23.330;2022-11-15T05:43:58;47.22;;;20.27;;
46561;SDS011;32289;42.688;23.330;2022-11-15T05:47:41;32.22;;;16.40;;
46561;SDS011;32289;42.688;23.330;2022-11-15T05:51:21;31.33;;;13.32;;
46561;SDS011;32289;42.688;23.330;2022-11-15T05:55:04;24.90;;;12.63;;
46561;SDS011;32289;42.688;23.330;2022-11-15T05:58:46;31.70;;;13.25;;
46561;SDS011;32289;42.688;23.330;2022-11-15T06:02:27;24.13;;;11.07;;
46561;SDS011;32289;42.688;23.330;2022-11-15T06:06:08;20.08;;;10.52;;
46561;SDS011;32289;42.688;23.330;2022-11-15T06:09:49;27.90;;;11.73;;
46561;SDS011;32289;42.688;23.330;2022-11-15T06:13:29;19.80;;;9.40;;
46561;SDS011;32289;42.688;23.330;2022-11-15T06:17:10;28.45;;;10.77;;
46561;SDS011;32289;42.688;23.330;2022-11-15T06:20:51;28.85;;;11.43;;
46561;SDS011;32289;42.688;23.330;2022-11-15T06:24:31;28.85;;;9.93;;
46561;SDS011;32289;42.688;23.330;2022-11-15T06:28:12;30.67;;;11.52;;
46561;SDS011;32289;42.688;23.330;2022-11-15T06:31:53;32.58;;;11.80;;
46561;SDS011;32289;42.688;23.330;2022-11-15T06:35:34;35.53;;;11.50;;
46561;SDS011;32289;42.688;23.330;2022-11-15T06:39:15;40.03;;;15.80;;
46561;SDS011;32289;42.688;23.330;2022-11-15T06:42:58;52.45;;;14.52;;
46561;SDS011;32289;42.688;23.330;2022-11-15T06:46:39;48.17;;;16.02;;
46561;SDS011;32289;42.688;23.330;2022-11-15T06:50:20;43.80;;;15.50;;
46561;SDS011;32289;42.688;23.330;2022-11-15T06:54:01;33.78;;;13.50;;
46561;SDS011;32289;42.688;23.330;2022-11-15T06:57:51;40.10;;;14.85;;
46561;SDS011;32289;42.688;23.330;2022-11-15T07:01:32;35.50;;;13.43;;
46561;SDS011;32289;42.688;23.330;2022-11-15T07:05:13;38.83;;;12.98;;
46561;SDS011;32289;42.688;23.330;2022-11-15T07:08:54;35.55;;;12.60;;
46561;SDS011;32289;42.688;23.330;2022-11-15T07:12:35;28.83;;;12.55;;
46561;SDS011;32289;42.688;23.330;2022-11-15T07:16:16;31.23;;;12.32;;
46561;SDS011;32289;42.688;23.330;2022-11-15T07:19:57;28.25;;;13.48;;
46561;SDS011;32289;42.688;23.330;2022-11-15T07:23:38;32.92;;;12.75;;
46561;SDS011;32289;42.688;23.330;2022-11-15T07:27:19;34.47;;;11.43;;
46561;SDS011;32289;42.688;23.330;2022-11-15T07:31:06;21.60;;;9.63;;
46561;SDS011;32289;42.688;23.330;2022-11-15T07:34:48;21.67;;;9.63;;
46561;SDS011;32289;42.688;23.330;2022-11-15T07:38:29;28.27;;;10.95;;
46561;SDS011;32289;42.688;23.330;2022-11-15T07:42:10;35.90;;;12.65;;
46561;SDS011;32289;42.688;23.330;2022-11-15T07:46:11;28.98;;;12.88;;
46561;SDS011;32289;42.688;23.330;2022-11-15T07:49:51;30.33;;;12.07;;
46561;SDS011;32289;42.688;23.330;2022-11-15T07:53:32;29.75;;;11.95;;
46561;SDS011;32289;42.688;23.330;2022-11-15T07:57:13;27.38;;;11.55;;
46561;SDS011;32289;42.688;23.330;2022-11-15T08:00:54;34.50;;;13.60;;
46561;SDS011;32289;42.688;23.330;2022-11-15T08:04:34;32.70;;;12.48;;
46561;SDS011;32289;42.688;23.330;2022-11-15T08:08:15;41.20;;;14.45;;
46561;SDS011;32289;42.688;23.330;2022-11-15T08:11:56;30.13;;;12.75;;
46561;SDS011;32289;42.688;23.330;2022-11-15T08:15:37;39.72;;;14.85;;
46561;SDS011;32289;42.688;23.330;2022-11-15T08:19:18;31.15;;;13.70;;
46561;SDS011;32289;42.688;23.330;2022-11-15T08:22:59;41.40;;;15.23;;
46561;SDS011;32289;42.688;23.330;2022-11-15T08:26:41;41.58;;;14.80;;
46561;SDS011;32289;42.688;23.330;2022-11-15T08:30:22;35.42;;;14.45;;
46561;SDS011;32289;42.688;23.330;2022-11-15T08:34:03;29.85;;;13.13;;
46561;SDS011;32289;42.688;23.330;2022-11-15T08:37:45;35.85;;;14.02;;
46561;SDS011;32289;42.688;23.330;2022-11-15T08:41:33;39.50;;;13.60;;
46561;SDS011;32289;42.688;23.330;2022-11-15T08:45:16;38.88;;;16.70;;
46561;SDS011;32289;42.688;23.330;2022-11-15T08:48:57;41.75;;;16.23;;
46561;SDS011;32289;42.688;23.330;2022-11-15T08:52:37;44.78;;;16.50;;
46561;SDS011;32289;42.688;23.330;2022-11-15T08:56:18;47.85;;;16.50;;
46561;SDS011;32289;42.688;23.330;2022-11-15T08:59:59;44.40;;;18.67;;
46561;SDS011;32289;42.688;23.330;2022-11-15T09:03:40;43.75;;;16.00;;
46561;SDS011;32289;42.688;23.330;2022-11-15T09:07:21;41.38;;;15.52;;
46561;SDS011;32289;42.688;23.330;2022-11-15T09:11:05;48.33;;;17.35;;
46561;SDS011;32289;42.688;23.330;2022-11-15T09:14:47;38.13;;;17.25;;
46561;SDS011;32289;42.688;23.330;2022-11-15T09:18:27;37.80;;;14.70;;
46561;SDS011;32289;42.688;23.330;2022-11-15T09:22:08;41.28;;;16.33;;
46561;SDS011;32289;42.688;23.330;2022-11-15T09:25:49;46.72;;;17.23;;
46561;SDS011;32289;42.688;23.330;2022-11-15T09:29:30;49.67;;;19.55;;
46561;SDS011;32289;42.688;23.330;2022-11-15T09:33:12;48.03;;;19.60;;
46561;SDS011;32289;42.688;23.330;2022-11-15T09:36:53;50.35;;;18.83;;
46561;SDS011;32289;42.688;23.330;2022-11-15T09:40:35;54.08;;;18.67;;
46561;SDS011;32289;42.688;23.330;2022-11-15T09:52:10;48.72;;;19.13;;
46561;SDS011;32289;42.688;23.330;2022-11-15T09:55:59;49.35;;;19.10;;
46561;SDS011;32289;42.688;23.330;2022-11-15T10:03:59;53.42;;;18.67;;
46561;SDS011;32289;42.688;23.330;2022-11-15T10:07:44;47.28;;;19.00;;
46561;SDS011;32289;42.688;23.330;2022-11-15T10:11:34;43.53;;;19.38;;
46561;SDS011;32289;42.688;23.330;2022-11-15T10:15:16;50.78;;;21.30;;
46561;SDS011;32289;42.688;23.330;2022-11-15T10:23:00;55.20;;;20.00;;
46561;SDS011;32289;42.688;23.330;2022-11-15T10:26:48;52.65;;;20.08;;
46561;SDS011;32289;42.688;23.330;2022-11-15T10:30:34;46.55;;;18.73;;
46561;SDS011;32289;42.688;23.330;2022-11-15T10:34:25;55.00;;;21.58;;
46561;SDS011;32289;42.688;23.330;2022-11-15T10:38:07;54.65;;;22.67;;
46561;SDS011;32289;42.688;23.330;2022-11-15T10:41:51;53.17;;;20.48;;
46561;SDS011;32289;42.688;23.330;2022-11-15T10:45:32;58.72;;;21.00;;
46561;SDS011;32289;42.688;23.330;2022-11-15T10:49:18;50.17;;;22.58;;
46561;SDS011;32289;42.688;23.330;2022-11-15T10:53:01;52.22;;;22.75;;
46561;SDS011;32289;42.688;23.330;2022-11-15T10:56:42;60.65;;;24.30;;
46561;SDS011;32289;42.688;23.330;2022-11-15T11:00:32;59.50;;;25.23;;
46561;SDS011;32289;42.688;23.330;2022-11-15T11:04:15;56.45;;;23.85;;
46561;SDS011;32289;42.688;23.330;2022-11-15T11:07:57;67.32;;;26.88;;
46561;SDS011;32289;42.688;23.330;2022-11-15T11:11:48;64.13;;;26.95;;
46561;SDS011;32289;42.688;23.330;2022-11-15T11:15:30;67.07;;;27.13;;
46561;SDS011;32289;42.688;23.330;2022-11-15T11:36:03;56.28;;;23.33;;
46561;SDS011;32289;42.688;23.330;2022-11-15T11:43:46;51.33;;;21.42;;
46561;SDS011;32289;42.688;23.330;2022-11-15T11:51:40;51.85;;;22.55;;
46561;SDS011;32289;42.688;23.330;2022-11-15T11:55:41;42.55;;;19.63;;
46561;SDS011;32289;42.688;23.330;2022-11-15T12:07:03;45.97;;;20.73;;
46561;SDS011;32289;42.688;23.330;2022-11-15T12:11:28;50.38;;;20.67;;
46561;SDS011;32289;42.688;23.330;2022-11-15T12:18:51;48.20;;;19.98;;
46561;SDS011;32289;42.688;23.330;2022-11-15T12:22:38;50.60;;;21.33;;
46561;SDS011;32289;42.688;23.330;2022-11-15T12:26:25;53.83;;;21.17;;
46561;SDS011;32289;42.688;23.330;2022-11-15T12:30:14;41.60;;;19.35;;
46561;SDS011;32289;42.688;23.330;2022-11-15T12:33:57;41.60;;;18.75;;
46561;SDS011;32289;42.688;23.330;2022-11-15T12:41:21;49.45;;;21.23;;
46561;SDS011;32289;42.688;23.330;2022-11-15T12:45:22;44.53;;;20.27;;
46561;SDS011;32289;42.688;23.330;2022-11-15T13:00:48;44.40;;;19.25;;
46561;SDS011;32289;42.688;23.330;2022-11-15T13:04:29;45.95;;;19.52;;
46561;SDS011;32289;42.688;23.330;2022-11-15T13:08:10;53.50;;;20.38;;
46561;SDS011;32289;42.688;23.330;2022-11-15T13:16:02;48.95;;;20.52;;
46561;SDS011;32289;42.688;23.330;2022-11-15T13:20:11;46.50;;;20.65;;
46561;SDS011;32289;42.688;23.330;2022-11-15T13:23:51;53.72;;;21.58;;
46561;SDS011;32289;42.688;23.330;2022-11-15T13:27:35;54.95;;;22.27;;
46561;SDS011;32289;42.688;23.330;2022-11-15T13:34:59;45.58;;;20.48;;
46561;SDS011;32289;42.688;23.330;2022-11-15T13:38:41;53.47;;;21.90;;
46561;SDS011;32289;42.688;23.330;2022-11-15T13:42:23;42.33;;;19.23;;
46561;SDS011;32289;42.688;23.330;2022-11-15T13:46:13;42.85;;;18.42;;
46561;SDS011;32289;42.688;23.330;2022-11-15T13:50:05;48.63;;;19.13;;
46561;SDS011;32289;42.688;23.330;2022-11-15T13:53:49;43.40;;;19.73;;
46561;SDS011;32289;42.688;23.330;2022-11-15T14:01:17;51.53;;;21.10;;
46561;SDS011;32289;42.688;23.330;2022-11-15T14:12:51;47.13;;;18.67;;
46561;SDS011;32289;42.688;23.330;2022-11-15T14:16:33;46.05;;;19.67;;
46561;SDS011;32289;42.688;23.330;2022-11-15T14:24:16;42.92;;;18.90;;
46561;SDS011;32289;42.688;23.330;2022-11-15T14:32:56;58.70;;;23.08;;
46561;SDS011;32289;42.688;23.330;2022-11-15T14:39:58;57.17;;;20.85;;
46561;SDS011;32289;42.688;23.330;2022-11-15T14:43:39;50.25;;;21.33;;
46561;SDS011;32289;42.688;23.330;2022-11-15T14:47:20;59.00;;;21.67;;
46561;SDS011;32289;42.688;23.330;2022-11-15T14:51:01;53.22;;;21.77;;
46561;SDS011;32289;42.688;23.330;2022-11-15T14:54:41;57.20;;;21.27;;
46561;SDS011;32289;42.688;23.330;2022-11-15T14:58:22;57.45;;;21.60;;
46561;SDS011;32289;42.688;23.330;2022-11-15T15:02:08;43.50;;;19.42;;
46561;SDS011;32289;42.688;23.330;2022-11-15T15:06:00;48.28;;;19.48;;
46561;SDS011;32289;42.688;23.330;2022-11-15T15:09:41;47.25;;;20.48;;
46561;SDS011;32289;42.688;23.330;2022-11-15T15:13:22;43.95;;;18.77;;
46561;SDS011;32289;42.688;23.330;2022-11-15T15:17:04;58.78;;;20.10;;
46561;SDS011;32289;42.688;23.330;2022-11-15T15:20:46;49.50;;;18.67;;
46561;SDS011;32289;42.688;23.330;2022-11-15T15:24:33;46.78;;;19.88;;
46561;SDS011;32289;42.688;23.330;2022-11-15T15:28:14;50.88;;;19.98;;
46561;SDS011;32289;42.688;23.330;2022-11-15T15:31:55;46.35;;;20.17;;
46561;SDS011;32289;42.688;23.330;2022-11-15T15:35:36;41.88;;;18.73;;
46561;SDS011;32289;42.688;23.330;2022-11-15T15:39:16;47.75;;;19.63;;
46561;SDS011;32289;42.688;23.330;2022-11-15T15:42:57;51.70;;;20.42;;
46561;SDS011;32289;42.688;23.330;2022-11-15T15:46:38;42.05;;;18.20;;
46561;SDS011;32289;42.688;23.330;2022-11-15T15:50:20;47.50;;;19.60;;
46561;SDS011;32289;42.688;23.330;2022-11-15T15:54:02;58.53;;;20.88;;
46561;SDS011;32289;42.688;23.330;2022-11-15T15:57:43;44.65;;;19.58;;
46561;SDS011;32289;42.688;23.330;2022-11-15T16:01:23;48.20;;;21.30;;
46561;SDS011;32289;42.688;23.330;2022-11-15T16:05:05;49.10;;;19.52;;
46561;SDS011;32289;42.688;23.330;2022-11-15T16:08:46;45.22;;;20.40;;
46561;SDS011;32289;42.688;23.330;2022-11-15T16:16:08;47.70;;;20.23;;
46561;SDS011;32289;42.688;23.330;2022-11-15T16:19:53;46.20;;;18.02;;
46561;SDS011;32289;42.688;23.330;2022-11-15T16:23:34;50.58;;;19.25;;
46561;SDS011;32289;42.688;23.330;2022-11-15T16:27:15;51.72;;;21.30;;
46561;SDS011;32289;42.688;23.330;2022-11-15T16:31:05;48.85;;;20.50;;
46561;SDS011;32289;42.688;23.330;2022-11-15T16:34:50;54.53;;;22.00;;
46561;SDS011;32289;42.688;23.330;2022-11-15T16:38:31;57.95;;;21.42;;
46561;SDS011;32289;42.688;23.330;2022-11-15T16:42:12;54.10;;;23.65;;
46561;SDS011;32289;42.688;23.330;2022-11-15T16:45:52;54.50;;;22.92;;
46561;SDS011;32289;42.688;23.330;2022-11-15T16:49:34;52.50;;;21.00;;
46561;SDS011;32289;42.688;23.330;2022-11-15T16:53:15;51.88;;;21.58;;
46561;SDS011;32289;42.688;23.330;2022-11-15T16:56:55;59.05;;;23.58;;
46561;SDS011;32289;42.688;23.330;2022-11-15T17:00:36;57.13;;;22.70;;
46561;SDS011;32289;42.688;23.330;2022-11-15T17:04:17;52.08;;;23.80;;
46561;SDS011;32289;42.688;23.330;2022-11-15T17:07:58;53.50;;;21.77;;
46561;SDS011;32289;42.688;23.330;2022-11-15T17:11:39;54.40;;;22.13;;
46561;SDS011;32289;42.688;23.330;2022-11-15T17:15:20;53.90;;;21.60;;
46561;SDS011;32289;42.688;23.330;2022-11-15T17:19:03;42.25;;;19.77;;
46561;SDS011;32289;42.688;23.330;2022-11-15T17:22:44;49.35;;;20.45;;
46561;SDS011;32289;42.688;23.330;2022-11-15T17:26:26;61.55;;;23.48;;
46561;SDS011;32289;42.688;23.330;2022-11-15T17:30:07;59.53;;;22.58;;
46561;SDS011;32289;42.688;23.330;2022-11-15T17:33:49;61.78;;;23.83;;
46561;SDS011;32289;42.688;23.330;2022-11-15T17:37:30;57.03;;;23.45;;
46561;SDS011;32289;42.688;23.330;2022-11-15T17:41:14;59.05;;;23.23;;
46561;SDS011;32289;42.688;23.330;2022-11-15T17:44:55;57.97;;;22.60;;
46561;SDS011;32289;42.688;23.330;2022-11-15T17:48:36;65.13;;;26.48;;
46561;SDS011;32289;42.688;23.330;2022-11-15T17:52:17;62.20;;;26.33;;
46561;SDS011;32289;42.688;23.330;2022-11-15T17:56:04;46.40;;;21.45;;
46561;SDS011;32289;42.688;23.330;2022-11-15T17:59:47;52.25;;;24.25;;
46561;SDS011;32289;42.688;23.330;2022-11-15T18:03:28;53.00;;;22.98;;
46561;SDS011;32289;42.688;23.330;2022-11-15T18:07:08;55.03;;;24.75;;
46561;SDS011;32289;42.688;23.330;2022-11-15T18:11:00;52.92;;;23.90;;
46561;SDS011;32289;42.688;23.330;2022-11-15T18:14:43;54.17;;;25.73;;
46561;SDS011;32289;42.688;23.330;2022-11-15T18:18:24;66.05;;;25.40;;
46561;SDS011;32289;42.688;23.330;2022-11-15T18:22:06;64.57;;;25.65;;
46561;SDS011;32289;42.688;23.330;2022-11-15T18:25:52;66.03;;;27.05;;
46561;SDS011;32289;42.688;23.330;2022-11-15T18:29:34;58.13;;;24.08;;
46561;SDS011;32289;42.688;23.330;2022-11-15T18:33:16;67.32;;;26.35;;
46561;SDS011;32289;42.688;23.330;2022-11-15T18:36:58;71.45;;;29.85;;
46561;SDS011;32289;42.688;23.330;2022-11-15T18:40:40;69.22;;;29.20;;
46561;SDS011;32289;42.688;23.330;2022-11-15T18:44:20;63.13;;;30.02;;
46561;SDS011;32289;42.688;23.330;2022-11-15T18:48:01;71.03;;;31.85;;
46561;SDS011;32289;42.688;23.330;2022-11-15T18:51:42;84.35;;;34.38;;
46561;SDS011;32289;42.688;23.330;2022-11-15T18:55:23;67.70;;;32.42;;
46561;SDS011;32289;42.688;23.330;2022-11-15T18:59:04;82.10;;;32.13;;
46561;SDS011;32289;42.688;23.330;2022-11-15T19:02:45;79.65;;;33.55;;
46561;SDS011;32289;42.688;23.330;2022-11-15T19:06:27;79.28;;;32.30;;
46561;SDS011;32289;42.688;23.330;2022-11-15T19:10:09;77.65;;;33.72;;
46561;SDS011;32289;42.688;23.330;2022-11-15T19:13:54;68.43;;;30.83;;
46561;SDS011;32289;42.688;23.330;2022-11-15T19:17:42;72.50;;;34.33;;
46561;SDS011;32289;42.688;23.330;2022-11-15T19:21:23;80.28;;;35.85;;
46561;SDS011;32289;42.688;23.330;2022-11-15T19:25:05;95.80;;;39.55;;
46561;SDS011;32289;42.688;23.330;2022-11-15T19:28:50;99.95;;;38.75;;
46561;SDS011;32289;42.688;23.330;2022-11-15T19:32:33;99.97;;;39.78;;
46561;SDS011;32289;42.688;23.330;2022-11-15T19:39:58;84.88;;;36.70;;
46561;SDS011;32289;42.688;23.330;2022-11-15T19:43:38;83.47;;;35.83;;
46561;SDS011;32289;42.688;23.330;2022-11-15T19:47:20;91.57;;;40.08;;
46561;SDS011;32289;42.688;23.330;2022-11-15T19:51:01;88.05;;;37.45;;
46561;SDS011;32289;42.688;23.330;2022-11-15T19:54:43;88.38;;;38.08;;
46561;SDS011;32289;42.688;23.330;2022-11-15T19:58:24;89.05;;;39.38;;
46561;SDS011;32289;42.688;23.330;2022-11-15T20:02:07;83.15;;;36.08;;
46561;SDS011;32289;42.688;23.330;2022-11-15T20:05:50;86.40;;;34.33;;
46561;SDS011;32289;42.688;23.330;2022-11-15T20:09:31;95.22;;;37.10;;
46561;SDS011;32289;42.688;23.330;2022-11-15T20:13:11;101.00;;;37.30;;
46561;SDS011;32289;42.688;23.330;2022-11-15T20:16:52;95.75;;;33.47;;
46561;SDS011;32289;42.688;23.330;2022-11-15T20:20:33;83.07;;;36.42;;
46561;SDS011;32289;42.688;23.330;2022-11-15T20:24:14;87.20;;;36.47;;
46561;SDS011;32289;42.688;23.330;2022-11-15T20:27:55;89.25;;;35.72;;
46561;SDS011;32289;42.688;23.330;2022-11-15T20:31:36;92.80;;;35.42;;
46561;SDS011;32289;42.688;23.330;2022-11-15T20:35:16;83.28;;;34.20;;
46561;SDS011;32289;42.688;23.330;2022-11-15T20:38:57;81.20;;;31.85;;
46561;SDS011;32289;42.688;23.330;2022-11-15T20:42:38;85.88;;;36.45;;
46561;SDS011;32289;42.688;23.330;2022-11-15T20:46:19;84.97;;;33.67;;
46561;SDS011;32289;42.688;23.330;2022-11-15T20:50:00;80.28;;;35.33;;
46561;SDS011;32289;42.688;23.330;2022-11-15T20:53:41;79.90;;;33.92;;
46561;SDS011;32289;42.688;23.330;2022-11-15T20:57:22;92.10;;;40.35;;
46561;SDS011;32289;42.688;23.330;2022-11-15T21:01:04;83.82;;;33.92;;
46561;SDS011;32289;42.688;23.330;2022-11-15T21:04:45;74.78;;;32.70;;
46561;SDS011;32289;42.688;23.330;2022-11-15T21:08:26;74.45;;;32.97;;
46561;SDS011;32289;42.688;23.330;2022-11-15T21:12:11;82.22;;;36.75;;
46561;SDS011;32289;42.688;23.330;2022-11-15T21:15:55;80.35;;;33.40;;
46561;SDS011;32289;42.688;23.330;2022-11-15T21:19:36;85.53;;;36.55;;
46561;SDS011;32289;42.688;23.330;2022-11-15T21:23:17;75.70;;;32.47;;
46561;SDS011;32289;42.688;23.330;2022-11-15T21:26:58;80.25;;;35.15;;
46561;SDS011;32289;42.688;23.330;2022-11-15T21:30:38;71.15;;;33.65;;
46561;SDS011;32289;42.688;23.330;2022-11-15T21:34:19;90.78;;;36.55;;
46561;SDS011;32289;42.688;23.330;2022-11-15T21:38:00;85.38;;;34.28;;
46561;SDS011;32289;42.688;23.330;2022-11-15T21:41:41;84.00;;;34.70;;
46561;SDS011;32289;42.688;23.330;2022-11-15T21:45:21;103.35;;;34.78;;
46561;SDS011;32289;42.688;23.330;2022-11-15T21:49:03;83.38;;;36.95;;
46561;SDS011;32289;42.688;23.330;2022-11-15T21:52:44;74.63;;;32.15;;
46561;SDS011;32289;42.688;23.330;2022-11-15T21:56:26;82.57;;;35.10;;
46561;SDS011;32289;42.688;23.330;2022-11-15T22:00:08;76.13;;;34.53;;
46561;SDS011;32289;42.688;23.330;2022-11-15T22:04:08;78.82;;;34.42;;
46561;SDS011;32289;42.688;23.330;2022-11-15T22:07:49;78.38;;;32.58;;
46561;SDS011;32289;42.688;23.330;2022-11-15T22:11:29;80.20;;;34.47;;
46561;SDS011;32289;42.688;23.330;2022-11-15T22:15:10;83.50;;;35.53;;
46561;SDS011;32289;42.688;23.330;2022-11-15T22:18:51;89.38;;;39.63;;
46561;SDS011;32289;42.688;23.330;2022-11-15T22:22:32;96.93;;;36.63;;
46561;SDS011;32289;42.688;23.330;2022-11-15T22:26:14;101.43;;;38.95;;
46561;SDS011;32289;42.688;23.330;2022-11-15T22:29:55;90.82;;;38.17;;
46561;SDS011;32289;42.688;23.330;2022-11-15T22:33:36;104.28;;;40.17;;
46561;SDS011;32289;42.688;23.330;2022-11-15T22:37:17;91.68;;;43.42;;
46561;SDS011;32289;42.688;23.330;2022-11-15T22:40:58;108.13;;;46.35;;
46561;SDS011;32289;42.688;23.330;2022-11-15T22:44:39;115.65;;;51.65;;
46561;SDS011;32289;42.688;23.330;2022-11-15T22:48:20;160.23;;;59.08;;
46561;SDS011;32289;42.688;23.330;2022-11-15T22:52:02;127.80;;;53.88;;
46561;SDS011;32289;42.688;23.330;2022-11-15T22:55:48;129.15;;;51.60;;
46561;SDS011;32289;42.688;23.330;2022-11-15T22:59:33;128.23;;;54.33;;
46561;SDS011;32289;42.688;23.330;2022-11-15T23:03:16;127.93;;;54.92;;
46561;SDS011;32289;42.688;23.330;2022-11-15T23:06:57;129.23;;;55.70;;
46561;SDS011;32289;42.688;23.330;2022-11-15T23:10:38;105.18;;;46.85;;
46561;SDS011;32289;42.688;23.330;2022-11-15T23:18:18;113.15;;;52.58;;
46561;SDS011;32289;42.688;23.330;2022-11-15T23:21:59;105.50;;;44.70;;
46561;SDS011;32289;42.688;23.330;2022-11-15T23:25:58;113.90;;;46.80;;
46561;SDS011;32289;42.688;23.330;2022-11-15T23:29:39;99.70;;;47.63;;
46561;SDS011;32289;42.688;23.330;2022-11-15T23:33:39;109.57;;;47.35;;
46561;SDS011;32289;42.688;23.330;2022-11-15T23:37:38;99.50;;;45.20;;
46561;SDS011;32289;42.688;23.330;2022-11-15T23:41:18;103.45;;;43.67;;
46561;SDS011;32289;42.688;23.330;2022-11-15T23:45:00;100.00;;;44.28;;
46561;SDS011;32289;42.688;23.330;2022-11-15T23:48:40;101.63;;;44.55;;
46561;SDS011;32289;42.688;23.330;2022-11-15T23:52:22;111.57;;;44.70;;
46561;SDS011;32289;42.688;23.330;2022-11-15T23:56:05;114.90;;;47.35;;
46561;SDS011;32289;42.688;23.330;2022-11-15T23:59:48;99.13;;;40.70;;
